Hauptseite
METAR-TAF:

METAR-TAF

Flughäfen :

Flughafen Teheran-Mehrabad

Teheran, Iran

Breite: 35-41N, Länge: 051-21E, Höhe: 1204 m

Beobachtung

Neuester Wetterbericht von vor 11 Minuten, um 14:30 UTC
Wind 6 kt aus West
Temperatur 5°C
Luftfeuchtigkeit 48%
Luftdruck 1016 hPa
Sichtweite 10 km oder mehr
Leicht bewölkt in der Höhe von 3500 ft
Durchbrochene Bewölkung in der Höhe von 19000 ft

METAR: OIII 241430Z 28006KT 9999 FEW035 BKN190 05/M05 Q1016 A3000

Zeit: 18:11 (14:41 UTC)

Prognose

Neuester Wetterbericht von vor 3 Stunden und 11 Minuten, um 11:30 UTC
Gültige Prognose vom 24 um 12 UTC bis 25 um 18 UTC
Wind 8 kt aus Süd/Südwest
Sichtweite 10 km oder mehr
Leicht bewölkt in der Höhe von 4000 ft
Durchbrochene Bewölkung in der Höhe von 10000 ft

TAF: OIII 241130Z 2412/2518 20008KT 9999 FEW040 BKN100

Wetterbeobachtungen und Prognosen von mehr als 4000 Flughäfen (METAR und TAF Bericht).

Die verfügbaren Stationen werden durch gelbe und rote Markierungen auf der Karte dargestellt.

Führen Sie die Maus auf sie, um den Namen der Station zu sehen.

Darauf klicken, um die Beobachtung von Wetterbeobachtungen und Prognosen zu sehen.

Um die Karte zu ändern : klicken Sie auf den grünen Tasten mit einem schwarzen Kreuz Zum Vergrößern, auf den grünen Button mit einem Gedankenstrich zu verkleinern, oder auf die grünen Pfeile für benachbarte Karten.


METAR-TAF: